LIBR Airport Information

Runway Information
Runway 05 Length 6132 ft width 148 ft
Elevation 46 ft Threshold 0 ft Heading 53
Runway 23 Length 6132 ft Width 148 ft
Elevation 13 ft Threshold 230 ft Heading 233
Runway 13 Length 8307 ft width 148 ft
Elevation 29 ft Threshold 0 ft Heading 137
Runway 31 Length 8307 ft Width 148 ft
Elevation 26 ft Threshold 0 ft Heading 317
Airport Frequencies
Type APP Name BRINDISI A Frequency 36.365 MHZ
Type APP Name BRINDISI A Frequency 118.4 MHZ
Type GND Name GND Frequency 31.355 MHZ
Type ILS RWY 32 Name Frequency 109.5 MHZ
Type TWR Name BRINDISI T Frequency 118.1 MHZ
Airport Navaids
Type VORTAC Name Brindisi Frequency 113200 KHZ
Type NDB Name Brindisi Frequency 364 KHZ
Airport Weather Information & NOTAM
ADDS - METARS form results

(1702 UTC 20 October 2020)
Data provider http://aviationweather.gov/metar/data/
 
METAR text: LIBR 201650Z 36008KT 9999 FEW010 18/11 Q1024
Conditions at: LIBR (BRINDISI/CASALE , IT) observed 1650 UTC 20 October 2020
Temperature: 18.0°C (64°F)
Dewpoint: 11.0°C (52°F) [RH = 64%]
Pressure (altimeter): 30.24 inches Hg (1024.0 mb)
Winds: from the N (360 degrees) at 9 MPH (8 knots; 4.1 m/s)
Visibility: 6 or more miles (10+ km)
Ceiling: at least 12,000 feet AGL
Clouds: few clouds at 1000 feet AGL
Weather: no significant weather observed at this time

METAR text: LIBR 201620Z 35008KT 9999 FEW020 18/11 Q1024
Conditions at: LIBR (BRINDISI/CASALE , IT) observed 1620 UTC 20 October 2020
Temperature: 18.0°C (64°F)
Dewpoint: 11.0°C (52°F) [RH = 64%]
Pressure (altimeter): 30.24 inches Hg (1024.0 mb)
Winds: from the N (350 degrees) at 9 MPH (8 knots; 4.1 m/s)
Visibility: 6 or more miles (10+ km)
Ceiling: at least 12,000 feet AGL
Clouds: few clouds at 2000 feet AGL
Weather: no significant weather observed at this time

Forecast for: LIBR (BRINDISI/CASALE , IT)
Text: TAF LIBR 201100Z 2012/2112 35012KT 9999 FEW040
Forecast period: 1200 UTC 20 October 2020 to 1200 UTC 21 October 2020
Forecast type: FROM: standard forecast or significant change
Winds: from the N (350 degrees) at 14 MPH (12 knots; 6.2 m/s)
Visibility: 6 or more miles (10+ km)
Ceiling: at least 12,000 feet AGL
Clouds: few clouds at 4000 feet AGL
Weather: no significant weather forecast for this period